createdAt,value
2018-07-01T00:01:03.859Z,1018.2
2018-07-01T00:06:04.324Z,1018.1
2018-07-01T00:11:03.882Z,1018.1
2018-07-01T00:16:04.154Z,1018.1
2018-07-01T00:21:04.642Z,1018.1
2018-07-01T00:26:03.914Z,1018.1
2018-07-01T00:31:04.253Z,1018.2
2018-07-01T00:36:04.656Z,1018.2
2018-07-01T00:41:04.273Z,1018.2
2018-07-01T00:46:04.613Z,1018.2
2018-07-01T00:51:04.090Z,1018.2
2018-07-01T00:56:04.333Z,1018.2
2018-07-01T01:01:04.601Z,1018.2
2018-07-01T01:06:04.074Z,1018.2
2018-07-01T01:11:04.633Z,1018.2
2018-07-01T01:16:03.946Z,1018.2
2018-07-01T01:21:04.447Z,1018.2
2018-07-01T01:26:04.676Z,1018.1
2018-07-01T01:31:03.956Z,1018.2
2018-07-01T01:36:04.383Z,1018.2
2018-07-01T01:41:04.017Z,1018.2
2018-07-01T01:46:04.257Z,1018.2
2018-07-01T01:51:04.699Z,1018.3
2018-07-01T01:56:03.940Z,1018.4
2018-07-01T02:01:04.254Z,1018.3
2018-07-01T02:06:04.698Z,1018.4
2018-07-01T02:11:04.348Z,1018.4
2018-07-01T02:16:04.626Z,1018.4
2018-07-01T02:21:04.165Z,1018.5
2018-07-01T02:26:04.359Z,1018.4
2018-07-01T02:31:04.647Z,1018.4
2018-07-01T02:36:04.095Z,1018.5
2018-07-01T02:41:04.728Z,1018.5
2018-07-01T02:46:03.974Z,1018.5
2018-07-01T02:51:04.448Z,1018.4
2018-07-01T02:56:04.625Z,1018.4
2018-07-01T03:01:03.942Z,1018.5
2018-07-01T03:06:04.368Z,1018.6
2018-07-01T03:11:03.954Z,1018.7
2018-07-01T03:16:04.239Z,1018.7
2018-07-01T03:21:04.750Z,1018.7
2018-07-01T03:26:03.954Z,1018.7
2018-07-01T03:31:04.241Z,1018.7
2018-07-01T03:36:04.710Z,1018.7
2018-07-01T03:41:04.323Z,1018.7
2018-07-01T03:46:04.526Z,1018.9
2018-07-01T03:51:04.030Z,1018.8
2018-07-01T03:56:04.208Z,1018.9
2018-07-01T04:01:04.506Z,1018.9
2018-07-01T04:06:03.976Z,1019
2018-07-01T04:11:04.575Z,1019.1
2018-07-01T04:16:03.901Z,1019.1
2018-07-01T04:21:04.381Z,1019.1
2018-07-01T04:26:03.877Z,1019.1
2018-07-01T04:31:04.814Z,1019.1
2018-07-01T04:36:04.611Z,1019.1
2018-07-01T04:41:04.209Z,1019.2
2018-07-01T04:46:04.507Z,1019.1
2018-07-01T04:51:04.622Z,1019.1
2018-07-01T04:56:03.856Z,1019.1
2018-07-01T05:01:04.162Z,1019.2
2018-07-01T05:06:04.665Z,1019.2
2018-07-01T05:11:04.221Z,1019.3
2018-07-01T05:16:04.502Z,1019.3
2018-07-01T05:21:03.995Z,1019.4
2018-07-01T05:26:04.234Z,1019.4
2018-07-01T05:31:04.516Z,1019.4
2018-07-01T05:36:03.990Z,1019.4
2018-07-01T05:41:04.564Z,1019.4
2018-07-01T05:46:03.820Z,1019.4
2018-07-01T05:51:04.314Z,1019.5
2018-07-01T05:56:04.498Z,1019.4
2018-07-01T06:01:03.826Z,1019.4
2018-07-01T06:06:04.258Z,1019.4
2018-07-01T06:11:03.923Z,1019.4
2018-07-01T06:16:04.183Z,1019.3
2018-07-01T06:21:04.692Z,1019.4
2018-07-01T06:26:03.914Z,1019.4
2018-07-01T06:31:04.208Z,1019.4
2018-07-01T06:36:04.707Z,1019.4
2018-07-01T06:41:04.287Z,1019.4
2018-07-01T06:46:04.554Z,1019.3
2018-07-01T06:51:04.028Z,1019.4
2018-07-01T06:56:04.274Z,1019.3
2018-07-01T07:01:04.512Z,1019.3
2018-07-01T07:06:04.048Z,1019.3
2018-07-01T07:11:04.630Z,1019.2
2018-07-01T07:16:03.898Z,1019.3
2018-07-01T07:21:04.343Z,1019.4
2018-07-01T07:26:04.564Z,1019.6
2018-07-01T07:31:03.861Z,1019.5
2018-07-01T07:36:04.333Z,1019.4
2018-07-01T07:41:03.954Z,1019.4
2018-07-01T07:46:04.211Z,1019.5
2018-07-01T07:51:04.717Z,1019.5
2018-07-01T07:56:03.883Z,1019.5
2018-07-01T08:01:04.213Z,1019.4
2018-07-01T08:06:04.711Z,1019.4
2018-07-01T08:11:04.243Z,1019.3
2018-07-01T08:16:04.527Z,1019.4
2018-07-01T08:21:04.021Z,1019.3
2018-07-01T08:26:04.278Z,1019.4
2018-07-01T08:31:04.534Z,1019.4
2018-07-01T08:36:04.047Z,1019.4
2018-07-01T08:41:04.628Z,1019.4
2018-07-01T08:46:03.906Z,1019.4
2018-07-01T08:51:04.365Z,1019.4
2018-07-01T08:56:04.567Z,1019.4
2018-07-01T09:01:03.875Z,1019.3
2018-07-01T09:06:04.340Z,1019.4
2018-07-01T09:11:03.900Z,1019.4
2018-07-01T09:16:04.186Z,1019.3
2018-07-01T09:21:04.745Z,1019.2
2018-07-01T09:26:03.977Z,1019.2
2018-07-01T09:31:04.241Z,1019.2
2018-07-01T09:36:04.749Z,1019.2
2018-07-01T09:41:04.267Z,1019.2
2018-07-01T09:46:04.611Z,1019.1
2018-07-01T09:51:04.697Z,1019
2018-07-01T09:56:04.281Z,1019.1
2018-07-01T10:01:04.921Z,1019
2018-07-01T10:06:04.064Z,1019
2018-07-01T10:11:04.616Z,1019
2018-07-01T10:16:03.884Z,1019
2018-07-01T10:21:04.435Z,1019
2018-07-01T10:26:04.625Z,1018.9
2018-07-01T10:31:03.929Z,1018.8
2018-07-01T10:36:04.416Z,1018.8
2018-07-01T10:41:03.969Z,1018.8
2018-07-01T10:46:04.249Z,1018.9
2018-07-01T10:51:04.719Z,1018.8
2018-07-01T10:56:03.938Z,1018.8
2018-07-01T11:01:04.612Z,1018.8
2018-07-01T11:06:05.393Z,1018.8
2018-07-01T11:11:04.392Z,1018.8
2018-07-01T11:16:04.643Z,1018.6
2018-07-01T11:21:04.204Z,1018.6
2018-07-01T11:26:04.327Z,1018.6
2018-07-01T11:31:07.191Z,1018.4
2018-07-01T11:36:04.121Z,1018.4
2018-07-01T11:41:04.675Z,1018.3
2018-07-01T11:46:03.966Z,1018.4
2018-07-01T11:51:04.455Z,1018.4
2018-07-01T11:56:04.669Z,1018.2
2018-07-01T12:01:03.995Z,1018.2
2018-07-01T12:06:04.414Z,1018.2
2018-07-01T12:11:04.014Z,1018.2
2018-07-01T12:16:04.344Z,1018.2
2018-07-01T12:21:04.806Z,1018.1
2018-07-01T12:26:04.019Z,1018
2018-07-01T12:31:07.035Z,1018
2018-07-01T12:36:04.793Z,1017.9
2018-07-01T12:41:04.465Z,1017.9
2018-07-01T12:46:04.653Z,1017.9
2018-07-01T12:51:04.175Z,1017.9
2018-07-01T12:56:04.347Z,1017.9
2018-07-01T13:01:04.695Z,1017.9
2018-07-01T13:06:04.083Z,1017.8
2018-07-01T13:11:04.678Z,1017.8
2018-07-01T13:16:03.973Z,1017.8
2018-07-01T13:21:04.637Z,1017.8
2018-07-01T13:26:04.687Z,1017.6
2018-07-01T13:31:03.996Z,1017.7
2018-07-01T13:36:04.485Z,1017.6
2018-07-01T13:41:04.043Z,1017.6
2018-07-01T13:46:04.413Z,1017.6
2018-07-01T13:51:04.841Z,1017.5
2018-07-01T13:56:04.534Z,1017.5
2018-07-01T14:01:04.287Z,1017.5
2018-07-01T14:06:04.767Z,1017.5
2018-07-01T14:11:04.395Z,1017.5
2018-07-01T14:16:04.684Z,1017.5
2018-07-01T14:21:04.214Z,1017.1
2018-07-01T14:26:04.476Z,1016.9
2018-07-01T14:31:04.744Z,1016.9
2018-07-01T14:36:04.241Z,1016.8
2018-07-01T14:41:03.788Z,1016.9
2018-07-01T14:46:04.082Z,1016.9
2018-07-01T14:51:04.527Z,1016.8
2018-07-01T14:56:04.734Z,1016.8
2018-07-01T15:01:04.007Z,1016.7
2018-07-01T15:06:04.557Z,1016.7
2018-07-01T15:11:04.335Z,1016.7
2018-07-01T15:16:04.346Z,1016.7
2018-07-01T15:21:03.910Z,1016.7
2018-07-01T15:26:04.080Z,1016.7
2018-07-01T15:31:04.396Z,1016.7
2018-07-01T15:36:03.885Z,1016.6
2018-07-01T15:41:04.426Z,1016.5
2018-07-01T15:46:04.745Z,1016.4
2018-07-01T15:51:04.239Z,1016.4
2018-07-01T15:56:04.465Z,1016.4
2018-07-01T16:01:03.761Z,1016.3
2018-07-01T16:06:04.210Z,1016.3
2018-07-01T16:11:03.773Z,1016.2
2018-07-01T16:16:04.056Z,1016.4
2018-07-01T16:21:04.560Z,1016.3
2018-07-01T16:26:04.311Z,1016.3
2018-07-01T16:31:04.178Z,1016.3
2018-07-01T16:36:04.457Z,1016.3
2018-07-01T16:41:04.551Z,1016.3
2018-07-01T16:46:04.408Z,1016.2
2018-07-01T16:51:03.876Z,1016.3
2018-07-01T16:56:04.119Z,1016.3
2018-07-01T17:01:04.516Z,1016.3
2018-07-01T17:06:03.908Z,1016.4
2018-07-01T17:11:04.632Z,1016.3
2018-07-01T17:16:03.814Z,1016.4
2018-07-01T17:21:04.338Z,1016.4
2018-07-01T17:26:04.549Z,1016.3
2018-07-01T17:31:03.857Z,1016.4
2018-07-01T17:36:04.304Z,1016.3
2018-07-01T17:41:03.880Z,1016.4
2018-07-01T17:46:04.208Z,1016.4
2018-07-01T17:51:04.649Z,1016.4
2018-07-01T17:56:03.968Z,1016.4
2018-07-01T18:01:04.137Z,1016.4
2018-07-01T18:06:04.574Z,1016.5
2018-07-01T18:11:04.226Z,1016.5
2018-07-01T18:16:04.499Z,1016.5
2018-07-01T18:21:04.023Z,1016.5
2018-07-01T18:26:04.194Z,1016.5
2018-07-01T18:31:04.560Z,1016.5
2018-07-01T18:36:03.967Z,1016.5
2018-07-01T18:41:04.538Z,1016.5
2018-07-01T18:46:03.864Z,1016.5
2018-07-01T18:51:04.314Z,1016.5
2018-07-01T18:56:04.523Z,1016.5
2018-07-01T19:01:03.858Z,1016.6
2018-07-01T19:06:04.288Z,1016.5
2018-07-01T19:11:03.975Z,1016.6
2018-07-01T19:16:04.128Z,1016.6
2018-07-01T19:21:04.633Z,1016.7
2018-07-01T19:26:03.873Z,1016.7
2018-07-01T19:31:04.148Z,1016.7
2018-07-01T19:36:04.801Z,1016.9
2018-07-01T19:41:04.182Z,1016.9
2018-07-01T19:46:04.478Z,1016.9
2018-07-01T19:51:03.928Z,1017
2018-07-01T19:56:04.272Z,1017.1
2018-07-01T20:01:04.468Z,1017.2
2018-07-01T20:06:03.964Z,1017.2
2018-07-01T20:11:04.537Z,1017.2
2018-07-01T20:16:03.915Z,1017.3
2018-07-01T20:21:04.363Z,1017.3
2018-07-01T20:26:04.620Z,1017.3
2018-07-01T20:31:03.893Z,1017.4
2018-07-01T20:36:05.025Z,1017.4
2018-07-01T20:41:03.992Z,1017.5
2018-07-01T20:46:04.285Z,1017.5
2018-07-01T20:51:05.478Z,1017.6
2018-07-01T20:56:03.923Z,1017.6
2018-07-01T21:01:04.257Z,1017.6
2018-07-01T21:06:04.757Z,1017.6
2018-07-01T21:11:04.266Z,1017.6
2018-07-01T21:16:04.583Z,1017.7
2018-07-01T21:21:04.094Z,1017.8
2018-07-01T21:26:04.299Z,1017.8
2018-07-01T21:31:04.568Z,1017.8
2018-07-01T21:36:04.121Z,1017.9
2018-07-01T21:41:04.738Z,1018
2018-07-01T21:46:04.006Z,1017.9
2018-07-01T21:51:04.575Z,1018
2018-07-01T21:56:06.754Z,1018
2018-07-01T22:01:03.958Z,1018
2018-07-01T22:06:04.462Z,1018
2018-07-01T22:11:05.479Z,1018.2
2018-07-01T22:16:04.297Z,1018.2
2018-07-01T22:21:04.841Z,1018.2
2018-07-01T22:26:05.255Z,1018.2
2018-07-01T22:31:04.345Z,1018.2
2018-07-01T22:36:04.813Z,1018.2
2018-07-01T22:41:05.088Z,1018.2
2018-07-01T22:46:04.729Z,1018.2
2018-07-01T22:51:04.205Z,1018.3
2018-07-01T22:56:05.986Z,1018.4
2018-07-01T23:01:04.878Z,1018.4
2018-07-01T23:06:04.491Z,1018.3
2018-07-01T23:11:04.636Z,1018.3
2018-07-01T23:16:03.926Z,1018.3
2018-07-01T23:21:04.474Z,1018.2
2018-07-01T23:26:04.645Z,1018.3
2018-07-01T23:31:03.960Z,1018.3
2018-07-01T23:36:04.405Z,1018.3
2018-07-01T23:41:04.068Z,1018.3
2018-07-01T23:46:04.320Z,1018.3
2018-07-01T23:51:04.786Z,1018.2
2018-07-01T23:56:06.717Z,1018.3
